sensor_id;sensor_type;location;lat;lon;timestamp;P1;durP1;ratioP1;P2;durP2;ratioP2
23750;SDS011;12055;52.098;13.176;2022-09-24T00:01:25;3.85;;;2.63;;
23750;SDS011;12055;52.098;13.176;2022-09-24T00:03:57;5.15;;;3.00;;
23750;SDS011;12055;52.098;13.176;2022-09-24T00:06:25;3.38;;;2.80;;
23750;SDS011;12055;52.098;13.176;2022-09-24T00:08:51;4.30;;;3.00;;
23750;SDS011;12055;52.098;13.176;2022-09-24T00:11:19;4.15;;;3.03;;
23750;SDS011;12055;52.098;13.176;2022-09-24T00:13:45;3.92;;;2.65;;
23750;SDS011;12055;52.098;13.176;2022-09-24T00:16:13;5.00;;;3.10;;
23750;SDS011;12055;52.098;13.176;2022-09-24T00:18:40;5.00;;;3.22;;
23750;SDS011;12055;52.098;13.176;2022-09-24T00:21:10;5.32;;;3.08;;
23750;SDS011;12055;52.098;13.176;2022-09-24T00:26:09;4.57;;;3.45;;
23750;SDS011;12055;52.098;13.176;2022-09-24T00:28:55;5.55;;;3.58;;
23750;SDS011;12055;52.098;13.176;2022-09-24T00:31:21;4.00;;;3.25;;
23750;SDS011;12055;52.098;13.176;2022-09-24T00:33:47;4.00;;;2.88;;
23750;SDS011;12055;52.098;13.176;2022-09-24T00:36:16;5.05;;;3.63;;
23750;SDS011;12055;52.098;13.176;2022-09-24T00:38:42;5.47;;;3.55;;
23750;SDS011;12055;52.098;13.176;2022-09-24T00:41:07;3.47;;;2.58;;
23750;SDS011;12055;52.098;13.176;2022-09-24T00:43:34;4.57;;;3.20;;
23750;SDS011;12055;52.098;13.176;2022-09-24T00:46:13;4.75;;;3.53;;
23750;SDS011;12055;52.098;13.176;2022-09-24T00:48:56;4.47;;;3.50;;
23750;SDS011;12055;52.098;13.176;2022-09-24T00:51:25;4.93;;;2.90;;
23750;SDS011;12055;52.098;13.176;2022-09-24T00:53:53;5.10;;;2.67;;
23750;SDS011;12055;52.098;13.176;2022-09-24T00:56:24;3.75;;;3.03;;
23750;SDS011;12055;52.098;13.176;2022-09-24T00:58:53;4.22;;;3.10;;
23750;SDS011;12055;52.098;13.176;2022-09-24T01:01:21;3.85;;;3.17;;
23750;SDS011;12055;52.098;13.176;2022-09-24T01:03:48;6.75;;;4.15;;
23750;SDS011;12055;52.098;13.176;2022-09-24T01:06:15;4.13;;;2.80;;
23750;SDS011;12055;52.098;13.176;2022-09-24T01:08:41;5.10;;;3.00;;
23750;SDS011;12055;52.098;13.176;2022-09-24T01:16:09;5.47;;;3.17;;
23750;SDS011;12055;52.098;13.176;2022-09-24T01:19:19;5.63;;;2.90;;
23750;SDS011;12055;52.098;13.176;2022-09-24T01:22:17;3.80;;;3.03;;
23750;SDS011;12055;52.098;13.176;2022-09-24T01:25:14;4.88;;;2.50;;
23750;SDS011;12055;52.098;13.176;2022-09-24T01:28:26;3.80;;;2.30;;
23750;SDS011;12055;52.098;13.176;2022-09-24T01:31:21;6.18;;;2.97;;
23750;SDS011;12055;52.098;13.176;2022-09-24T01:33:56;4.47;;;2.60;;
23750;SDS011;12055;52.098;13.176;2022-09-24T01:36:25;4.70;;;3.30;;
23750;SDS011;12055;52.098;13.176;2022-09-24T01:38:53;6.25;;;3.50;;
23750;SDS011;12055;52.098;13.176;2022-09-24T01:41:21;9.07;;;3.92;;
23750;SDS011;12055;52.098;13.176;2022-09-24T01:43:47;7.25;;;4.85;;
23750;SDS011;12055;52.098;13.176;2022-09-24T01:46:13;7.07;;;4.65;;
23750;SDS011;12055;52.098;13.176;2022-09-24T01:48:43;7.43;;;4.53;;
23750;SDS011;12055;52.098;13.176;2022-09-24T01:51:13;7.40;;;5.25;;
23750;SDS011;12055;52.098;13.176;2022-09-24T01:53:58;5.55;;;4.13;;
23750;SDS011;12055;52.098;13.176;2022-09-24T01:56:29;8.63;;;5.65;;
23750;SDS011;12055;52.098;13.176;2022-09-24T01:59:09;7.20;;;4.88;;
23750;SDS011;12055;52.098;13.176;2022-09-24T02:01:44;7.95;;;5.18;;
23750;SDS011;12055;52.098;13.176;2022-09-24T02:04:18;11.02;;;5.05;;
23750;SDS011;12055;52.098;13.176;2022-09-24T02:06:48;8.40;;;5.03;;
23750;SDS011;12055;52.098;13.176;2022-09-24T02:12:18;6.03;;;4.50;;
23750;SDS011;12055;52.098;13.176;2022-09-24T02:14:54;5.85;;;4.43;;
23750;SDS011;12055;52.098;13.176;2022-09-24T02:17:26;9.05;;;5.25;;
23750;SDS011;12055;52.098;13.176;2022-09-24T02:19:55;8.25;;;5.75;;
23750;SDS011;12055;52.098;13.176;2022-09-24T02:22:25;9.77;;;4.97;;
23750;SDS011;12055;52.098;13.176;2022-09-24T02:24:54;6.72;;;5.20;;
23750;SDS011;12055;52.098;13.176;2022-09-24T02:27:23;7.00;;;4.93;;
23750;SDS011;12055;52.098;13.176;2022-09-24T02:29:54;6.85;;;5.22;;
23750;SDS011;12055;52.098;13.176;2022-09-24T02:32:20;7.15;;;5.28;;
23750;SDS011;12055;52.098;13.176;2022-09-24T02:34:49;5.78;;;4.55;;
23750;SDS011;12055;52.098;13.176;2022-09-24T02:37:17;6.65;;;4.18;;
23750;SDS011;12055;52.098;13.176;2022-09-24T02:39:45;6.93;;;4.03;;
23750;SDS011;12055;52.098;13.176;2022-09-24T02:42:12;7.18;;;4.03;;
23750;SDS011;12055;52.098;13.176;2022-09-24T02:44:38;5.03;;;3.75;;
23750;SDS011;12055;52.098;13.176;2022-09-24T02:47:06;5.68;;;4.50;;
23750;SDS011;12055;52.098;13.176;2022-09-24T02:49:31;7.57;;;4.95;;
23750;SDS011;12055;52.098;13.176;2022-09-24T02:51:57;7.95;;;4.70;;
23750;SDS011;12055;52.098;13.176;2022-09-24T02:54:22;6.47;;;4.03;;
23750;SDS011;12055;52.098;13.176;2022-09-24T02:56:49;8.50;;;4.75;;
23750;SDS011;12055;52.098;13.176;2022-09-24T02:59:14;7.05;;;4.43;;
23750;SDS011;12055;52.098;13.176;2022-09-24T03:01:40;9.52;;;5.07;;
23750;SDS011;12055;52.098;13.176;2022-09-24T03:04:06;8.27;;;5.18;;
23750;SDS011;12055;52.098;13.176;2022-09-24T03:06:31;9.23;;;4.97;;
23750;SDS011;12055;52.098;13.176;2022-09-24T03:08:57;8.07;;;4.75;;
23750;SDS011;12055;52.098;13.176;2022-09-24T03:11:23;5.85;;;4.18;;
23750;SDS011;12055;52.098;13.176;2022-09-24T03:13:49;5.40;;;4.20;;
23750;SDS011;12055;52.098;13.176;2022-09-24T03:16:16;6.90;;;4.43;;
23750;SDS011;12055;52.098;13.176;2022-09-24T03:18:42;13.95;;;4.70;;
23750;SDS011;12055;52.098;13.176;2022-09-24T03:21:11;7.88;;;4.95;;
23750;SDS011;12055;52.098;13.176;2022-09-24T03:23:38;7.18;;;5.13;;
23750;SDS011;12055;52.098;13.176;2022-09-24T03:26:04;11.27;;;6.13;;
23750;SDS011;12055;52.098;13.176;2022-09-24T03:28:30;8.07;;;4.70;;
23750;SDS011;12055;52.098;13.176;2022-09-24T03:30:56;6.65;;;4.15;;
23750;SDS011;12055;52.098;13.176;2022-09-24T03:33:25;8.35;;;5.30;;
23750;SDS011;12055;52.098;13.176;2022-09-24T03:35:59;6.50;;;4.90;;
23750;SDS011;12055;52.098;13.176;2022-09-24T03:38:30;7.00;;;5.00;;
23750;SDS011;12055;52.098;13.176;2022-09-24T03:40:56;8.15;;;5.32;;
23750;SDS011;12055;52.098;13.176;2022-09-24T03:43:22;7.93;;;4.70;;
23750;SDS011;12055;52.098;13.176;2022-09-24T03:45:48;8.23;;;4.72;;
23750;SDS011;12055;52.098;13.176;2022-09-24T03:48:18;7.70;;;4.95;;
23750;SDS011;12055;52.098;13.176;2022-09-24T03:50:45;7.30;;;4.72;;
23750;SDS011;12055;52.098;13.176;2022-09-24T03:53:11;6.28;;;5.03;;
23750;SDS011;12055;52.098;13.176;2022-09-24T03:55:41;7.78;;;5.30;;
23750;SDS011;12055;52.098;13.176;2022-09-24T03:58:11;8.30;;;5.50;;
23750;SDS011;12055;52.098;13.176;2022-09-24T04:00:37;7.70;;;5.15;;
23750;SDS011;12055;52.098;13.176;2022-09-24T04:03:02;7.40;;;4.95;;
23750;SDS011;12055;52.098;13.176;2022-09-24T04:05:28;8.68;;;5.72;;
23750;SDS011;12055;52.098;13.176;2022-09-24T04:07:54;7.80;;;5.30;;
23750;SDS011;12055;52.098;13.176;2022-09-24T04:10:20;8.60;;;5.13;;
23750;SDS011;12055;52.098;13.176;2022-09-24T04:12:46;6.10;;;4.50;;
23750;SDS011;12055;52.098;13.176;2022-09-24T04:15:12;6.63;;;4.82;;
23750;SDS011;12055;52.098;13.176;2022-09-24T04:17:40;10.05;;;5.60;;
23750;SDS011;12055;52.098;13.176;2022-09-24T04:20:05;9.32;;;5.55;;
23750;SDS011;12055;52.098;13.176;2022-09-24T04:22:31;9.15;;;5.90;;
23750;SDS011;12055;52.098;13.176;2022-09-24T04:24:57;8.50;;;5.47;;
23750;SDS011;12055;52.098;13.176;2022-09-24T04:27:23;7.38;;;5.25;;
23750;SDS011;12055;52.098;13.176;2022-09-24T04:29:48;6.78;;;5.00;;
23750;SDS011;12055;52.098;13.176;2022-09-24T04:32:13;10.48;;;6.68;;
23750;SDS011;12055;52.098;13.176;2022-09-24T04:34:39;7.63;;;5.50;;
23750;SDS011;12055;52.098;13.176;2022-09-24T04:43:43;10.25;;;6.63;;
23750;SDS011;12055;52.098;13.176;2022-09-24T04:46:11;8.10;;;5.93;;
23750;SDS011;12055;52.098;13.176;2022-09-24T04:48:37;7.47;;;5.18;;
23750;SDS011;12055;52.098;13.176;2022-09-24T04:51:06;9.13;;;5.38;;
23750;SDS011;12055;52.098;13.176;2022-09-24T04:53:33;14.30;;;7.80;;
23750;SDS011;12055;52.098;13.176;2022-09-24T04:56:00;12.45;;;6.70;;
23750;SDS011;12055;52.098;13.176;2022-09-24T04:58:26;12.88;;;7.05;;
23750;SDS011;12055;52.098;13.176;2022-09-24T05:00:52;13.68;;;7.50;;
23750;SDS011;12055;52.098;13.176;2022-09-24T05:03:18;17.10;;;8.38;;
23750;SDS011;12055;52.098;13.176;2022-09-24T05:05:46;12.38;;;7.22;;
23750;SDS011;12055;52.098;13.176;2022-09-24T05:08:12;11.27;;;6.93;;
23750;SDS011;12055;52.098;13.176;2022-09-24T05:10:38;8.82;;;6.00;;
23750;SDS011;12055;52.098;13.176;2022-09-24T05:13:04;8.60;;;5.28;;
23750;SDS011;12055;52.098;13.176;2022-09-24T05:15:29;9.50;;;5.72;;
23750;SDS011;12055;52.098;13.176;2022-09-24T05:17:56;9.63;;;6.68;;
23750;SDS011;12055;52.098;13.176;2022-09-24T05:20:22;13.15;;;8.38;;
23750;SDS011;12055;52.098;13.176;2022-09-24T05:22:48;12.65;;;7.03;;
23750;SDS011;12055;52.098;13.176;2022-09-24T05:25:14;11.43;;;7.20;;
23750;SDS011;12055;52.098;13.176;2022-09-24T05:27:44;8.38;;;6.18;;
23750;SDS011;12055;52.098;13.176;2022-09-24T05:30:14;8.30;;;5.78;;
23750;SDS011;12055;52.098;13.176;2022-09-24T05:32:41;8.70;;;5.45;;
23750;SDS011;12055;52.098;13.176;2022-09-24T05:35:07;7.85;;;5.65;;
23750;SDS011;12055;52.098;13.176;2022-09-24T05:37:34;7.70;;;5.57;;
23750;SDS011;12055;52.098;13.176;2022-09-24T05:40:00;11.57;;;6.40;;
23750;SDS011;12055;52.098;13.176;2022-09-24T05:42:47;8.98;;;5.40;;
23750;SDS011;12055;52.098;13.176;2022-09-24T05:45:13;12.13;;;6.88;;
23750;SDS011;12055;52.098;13.176;2022-09-24T05:47:41;10.13;;;6.13;;
23750;SDS011;12055;52.098;13.176;2022-09-24T05:50:08;9.23;;;5.32;;
23750;SDS011;12055;52.098;13.176;2022-09-24T05:52:34;13.82;;;6.53;;
23750;SDS011;12055;52.098;13.176;2022-09-24T05:54:59;12.90;;;8.13;;
23750;SDS011;12055;52.098;13.176;2022-09-24T05:57:25;16.77;;;9.55;;
23750;SDS011;12055;52.098;13.176;2022-09-24T05:59:50;13.55;;;8.23;;
23750;SDS011;12055;52.098;13.176;2022-09-24T06:02:17;13.10;;;7.55;;
23750;SDS011;12055;52.098;13.176;2022-09-24T06:04:42;12.95;;;7.90;;
23750;SDS011;12055;52.098;13.176;2022-09-24T06:07:08;10.80;;;6.80;;
23750;SDS011;12055;52.098;13.176;2022-09-24T06:09:34;11.10;;;7.13;;
23750;SDS011;12055;52.098;13.176;2022-09-24T06:12:00;18.65;;;7.68;;
23750;SDS011;12055;52.098;13.176;2022-09-24T06:14:26;11.95;;;6.30;;
23750;SDS011;12055;52.098;13.176;2022-09-24T06:16:52;11.98;;;7.05;;
23750;SDS011;12055;52.098;13.176;2022-09-24T06:19:18;12.25;;;7.07;;
23750;SDS011;12055;52.098;13.176;2022-09-24T06:21:43;19.58;;;10.57;;
23750;SDS011;12055;52.098;13.176;2022-09-24T06:24:09;25.33;;;12.57;;
23750;SDS011;12055;52.098;13.176;2022-09-24T06:26:35;22.30;;;11.60;;
23750;SDS011;12055;52.098;13.176;2022-09-24T06:29:00;27.83;;;15.30;;
23750;SDS011;12055;52.098;13.176;2022-09-24T06:31:26;33.72;;;16.77;;
23750;SDS011;12055;52.098;13.176;2022-09-24T06:33:51;31.73;;;15.32;;
23750;SDS011;12055;52.098;13.176;2022-09-24T06:36:17;28.92;;;15.07;;
23750;SDS011;12055;52.098;13.176;2022-09-24T06:38:42;25.60;;;12.65;;
23750;SDS011;12055;52.098;13.176;2022-09-24T06:41:09;9.98;;;6.72;;
23750;SDS011;12055;52.098;13.176;2022-09-24T06:43:35;10.73;;;6.72;;
23750;SDS011;12055;52.098;13.176;2022-09-24T06:46:00;9.38;;;5.50;;
23750;SDS011;12055;52.098;13.176;2022-09-24T06:48:28;8.60;;;5.55;;
23750;SDS011;12055;52.098;13.176;2022-09-24T06:50:55;12.02;;;5.05;;
23750;SDS011;12055;52.098;13.176;2022-09-24T06:53:20;9.98;;;5.38;;
23750;SDS011;12055;52.098;13.176;2022-09-24T06:55:46;7.97;;;5.40;;
23750;SDS011;12055;52.098;13.176;2022-09-24T06:58:14;9.57;;;5.55;;
23750;SDS011;12055;52.098;13.176;2022-09-24T07:00:41;12.77;;;5.70;;
23750;SDS011;12055;52.098;13.176;2022-09-24T07:03:08;7.35;;;4.85;;
23750;SDS011;12055;52.098;13.176;2022-09-24T07:05:37;6.00;;;4.55;;
23750;SDS011;12055;52.098;13.176;2022-09-24T07:08:03;8.05;;;5.57;;
23750;SDS011;12055;52.098;13.176;2022-09-24T07:10:28;6.30;;;4.63;;
23750;SDS011;12055;52.098;13.176;2022-09-24T07:12:55;7.85;;;5.00;;
23750;SDS011;12055;52.098;13.176;2022-09-24T07:15:21;8.30;;;4.97;;
23750;SDS011;12055;52.098;13.176;2022-09-24T07:17:47;10.20;;;4.78;;
23750;SDS011;12055;52.098;13.176;2022-09-24T07:20:12;8.88;;;5.45;;
23750;SDS011;12055;52.098;13.176;2022-09-24T07:22:38;8.43;;;5.63;;
23750;SDS011;12055;52.098;13.176;2022-09-24T07:25:08;6.90;;;4.72;;
23750;SDS011;12055;52.098;13.176;2022-09-24T07:27:34;11.98;;;6.57;;
23750;SDS011;12055;52.098;13.176;2022-09-24T07:30:00;9.88;;;5.97;;
23750;SDS011;12055;52.098;13.176;2022-09-24T07:32:26;9.35;;;5.53;;
23750;SDS011;12055;52.098;13.176;2022-09-24T07:34:51;10.52;;;5.40;;
23750;SDS011;12055;52.098;13.176;2022-09-24T07:37:18;10.00;;;5.70;;
23750;SDS011;12055;52.098;13.176;2022-09-24T07:39:44;10.13;;;6.03;;
23750;SDS011;12055;52.098;13.176;2022-09-24T07:42:09;14.85;;;5.63;;
23750;SDS011;12055;52.098;13.176;2022-09-24T07:44:35;6.90;;;4.80;;
23750;SDS011;12055;52.098;13.176;2022-09-24T07:47:02;9.95;;;5.72;;
23750;SDS011;12055;52.098;13.176;2022-09-24T07:49:28;6.78;;;5.18;;
23750;SDS011;12055;52.098;13.176;2022-09-24T07:51:56;7.32;;;5.40;;
23750;SDS011;12055;52.098;13.176;2022-09-24T07:54:21;8.13;;;5.50;;
23750;SDS011;12055;52.098;13.176;2022-09-24T07:56:47;6.70;;;4.90;;
23750;SDS011;12055;52.098;13.176;2022-09-24T07:59:13;6.85;;;5.00;;
23750;SDS011;12055;52.098;13.176;2022-09-24T08:01:38;8.50;;;5.18;;
23750;SDS011;12055;52.098;13.176;2022-09-24T08:04:04;7.35;;;5.30;;
23750;SDS011;12055;52.098;13.176;2022-09-24T08:06:32;6.45;;;4.55;;
23750;SDS011;12055;52.098;13.176;2022-09-24T08:08:59;7.72;;;4.80;;
23750;SDS011;12055;52.098;13.176;2022-09-24T08:11:24;6.80;;;4.75;;
23750;SDS011;12055;52.098;13.176;2022-09-24T08:13:50;9.43;;;5.40;;
23750;SDS011;12055;52.098;13.176;2022-09-24T08:16:16;7.78;;;5.65;;
23750;SDS011;12055;52.098;13.176;2022-09-24T08:18:43;8.40;;;5.30;;
23750;SDS011;12055;52.098;13.176;2022-09-24T08:21:09;6.85;;;4.60;;
23750;SDS011;12055;52.098;13.176;2022-09-24T08:23:38;9.45;;;5.70;;
23750;SDS011;12055;52.098;13.176;2022-09-24T08:26:05;6.65;;;4.35;;
23750;SDS011;12055;52.098;13.176;2022-09-24T08:28:31;7.43;;;4.80;;
23750;SDS011;12055;52.098;13.176;2022-09-24T08:31:00;7.20;;;4.55;;
23750;SDS011;12055;52.098;13.176;2022-09-24T08:33:27;8.82;;;4.43;;
23750;SDS011;12055;52.098;13.176;2022-09-24T08:35:55;5.53;;;4.20;;
23750;SDS011;12055;52.098;13.176;2022-09-24T08:38:23;6.63;;;5.05;;
23750;SDS011;12055;52.098;13.176;2022-09-24T08:40:53;6.47;;;4.43;;
23750;SDS011;12055;52.098;13.176;2022-09-24T08:43:39;7.45;;;5.05;;
23750;SDS011;12055;52.098;13.176;2022-09-24T08:46:17;7.78;;;4.45;;
23750;SDS011;12055;52.098;13.176;2022-09-24T08:49:04;8.48;;;5.25;;
23750;SDS011;12055;52.098;13.176;2022-09-24T08:51:37;6.43;;;4.50;;
23750;SDS011;12055;52.098;13.176;2022-09-24T08:54:10;5.45;;;4.38;;
23750;SDS011;12055;52.098;13.176;2022-09-24T08:56:40;5.60;;;4.13;;
23750;SDS011;12055;52.098;13.176;2022-09-24T08:59:28;7.22;;;4.57;;
23750;SDS011;12055;52.098;13.176;2022-09-24T09:02:00;7.53;;;4.00;;
23750;SDS011;12055;52.098;13.176;2022-09-24T09:09:33;7.18;;;4.38;;
23750;SDS011;12055;52.098;13.176;2022-09-24T09:12:13;4.95;;;3.95;;
23750;SDS011;12055;52.098;13.176;2022-09-24T09:14:51;6.15;;;4.25;;
23750;SDS011;12055;52.098;13.176;2022-09-24T09:20:10;7.15;;;4.20;;
23750;SDS011;12055;52.098;13.176;2022-09-24T09:22:47;4.38;;;3.53;;
23750;SDS011;12055;52.098;13.176;2022-09-24T09:25:16;7.40;;;3.70;;
23750;SDS011;12055;52.098;13.176;2022-09-24T09:27:58;6.20;;;3.60;;
23750;SDS011;12055;52.098;13.176;2022-09-24T09:30:37;5.55;;;3.72;;
23750;SDS011;12055;52.098;13.176;2022-09-24T09:35:45;6.57;;;4.13;;
23750;SDS011;12055;52.098;13.176;2022-09-24T09:43:59;5.47;;;3.60;;
23750;SDS011;12055;52.098;13.176;2022-09-24T09:46:33;6.20;;;4.22;;
23750;SDS011;12055;52.098;13.176;2022-09-24T09:49:06;5.57;;;3.72;;
23750;SDS011;12055;52.098;13.176;2022-09-24T09:51:40;6.30;;;3.95;;
23750;SDS011;12055;52.098;13.176;2022-09-24T09:56:36;4.18;;;3.55;;
23750;SDS011;12055;52.098;13.176;2022-09-24T09:59:15;5.43;;;3.80;;
23750;SDS011;12055;52.098;13.176;2022-09-24T10:01:45;4.90;;;3.00;;
23750;SDS011;12055;52.098;13.176;2022-09-24T10:04:35;4.68;;;3.30;;
23750;SDS011;12055;52.098;13.176;2022-09-24T10:07:22;6.18;;;3.63;;
23750;SDS011;12055;52.098;13.176;2022-09-24T10:09:56;3.40;;;2.92;;
23750;SDS011;12055;52.098;13.176;2022-09-24T10:12:24;5.95;;;3.00;;
23750;SDS011;12055;52.098;13.176;2022-09-24T10:15:00;4.70;;;2.95;;
23750;SDS011;12055;52.098;13.176;2022-09-24T10:17:40;4.55;;;3.08;;
23750;SDS011;12055;52.098;13.176;2022-09-24T10:20:07;3.97;;;2.60;;
23750;SDS011;12055;52.098;13.176;2022-09-24T10:22:46;3.95;;;2.75;;
23750;SDS011;12055;52.098;13.176;2022-09-24T10:25:18;3.45;;;2.40;;
23750;SDS011;12055;52.098;13.176;2022-09-24T10:27:50;3.63;;;2.50;;
23750;SDS011;12055;52.098;13.176;2022-09-24T10:33:42;7.30;;;2.85;;
23750;SDS011;12055;52.098;13.176;2022-09-24T10:36:14;3.08;;;2.70;;
23750;SDS011;12055;52.098;13.176;2022-09-24T10:38:44;3.25;;;2.53;;
23750;SDS011;12055;52.098;13.176;2022-09-24T10:41:14;3.65;;;2.60;;
23750;SDS011;12055;52.098;13.176;2022-09-24T10:43:48;6.05;;;2.53;;
23750;SDS011;12055;52.098;13.176;2022-09-24T10:49:06;2.85;;;2.30;;
23750;SDS011;12055;52.098;13.176;2022-09-24T10:54:42;4.18;;;2.20;;
23750;SDS011;12055;52.098;13.176;2022-09-24T11:00:18;2.83;;;2.22;;
23750;SDS011;12055;52.098;13.176;2022-09-24T11:02:50;2.53;;;2.00;;
23750;SDS011;12055;52.098;13.176;2022-09-24T11:07:57;4.47;;;1.95;;
23750;SDS011;12055;52.098;13.176;2022-09-24T11:13:29;3.22;;;2.00;;
23750;SDS011;12055;52.098;13.176;2022-09-24T11:16:28;2.60;;;1.90;;
23750;SDS011;12055;52.098;13.176;2022-09-24T11:22:07;4.07;;;2.25;;
23750;SDS011;12055;52.098;13.176;2022-09-24T11:24:45;2.40;;;2.10;;
23750;SDS011;12055;52.098;13.176;2022-09-24T11:27:43;3.50;;;2.50;;
23750;SDS011;12055;52.098;13.176;2022-09-24T11:30:12;5.32;;;2.55;;
23750;SDS011;12055;52.098;13.176;2022-09-24T11:44:28;2.35;;;2.10;;
23750;SDS011;12055;52.098;13.176;2022-09-24T11:47:21;2.28;;;2.08;;
23750;SDS011;12055;52.098;13.176;2022-09-24T11:52:55;3.22;;;2.45;;
23750;SDS011;12055;52.098;13.176;2022-09-24T11:55:54;3.80;;;2.20;;
23750;SDS011;12055;52.098;13.176;2022-09-24T11:58:28;2.95;;;2.20;;
23750;SDS011;12055;52.098;13.176;2022-09-24T12:01:05;3.25;;;2.95;;
23750;SDS011;12055;52.098;13.176;2022-09-24T12:03:41;3.65;;;2.70;;
23750;SDS011;12055;52.098;13.176;2022-09-24T12:06:16;2.85;;;2.42;;
23750;SDS011;12055;52.098;13.176;2022-09-24T12:08:47;4.82;;;2.80;;
23750;SDS011;12055;52.098;13.176;2022-09-24T12:11:35;4.05;;;2.35;;
23750;SDS011;12055;52.098;13.176;2022-09-24T12:14:15;3.58;;;1.90;;
23750;SDS011;12055;52.098;13.176;2022-09-24T12:17:08;4.05;;;2.47;;
23750;SDS011;12055;52.098;13.176;2022-09-24T12:19:47;3.40;;;2.63;;
23750;SDS011;12055;52.098;13.176;2022-09-24T12:22:23;2.42;;;2.22;;
23750;SDS011;12055;52.098;13.176;2022-09-24T12:24:52;3.00;;;2.55;;
23750;SDS011;12055;52.098;13.176;2022-09-24T12:27:24;3.67;;;2.45;;
23750;SDS011;12055;52.098;13.176;2022-09-24T12:30:04;3.88;;;2.40;;
23750;SDS011;12055;52.098;13.176;2022-09-24T12:32:57;2.80;;;2.50;;
23750;SDS011;12055;52.098;13.176;2022-09-24T12:35:54;3.15;;;2.45;;
23750;SDS011;12055;52.098;13.176;2022-09-24T12:38:34;2.47;;;2.28;;
23750;SDS011;12055;52.098;13.176;2022-09-24T12:41:08;3.50;;;2.25;;
23750;SDS011;12055;52.098;13.176;2022-09-24T12:44:02;5.63;;;2.40;;
23750;SDS011;12055;52.098;13.176;2022-09-24T12:46:52;3.35;;;2.63;;
23750;SDS011;12055;52.098;13.176;2022-09-24T12:51:48;2.50;;;2.30;;
23750;SDS011;12055;52.098;13.176;2022-09-24T12:54:22;3.85;;;2.88;;
23750;SDS011;12055;52.098;13.176;2022-09-24T12:57:08;3.75;;;2.97;;
23750;SDS011;12055;52.098;13.176;2022-09-24T12:59:47;2.92;;;2.58;;
23750;SDS011;12055;52.098;13.176;2022-09-24T13:02:21;3.33;;;3.00;;
23750;SDS011;12055;52.098;13.176;2022-09-24T13:04:50;3.63;;;2.63;;
23750;SDS011;12055;52.098;13.176;2022-09-24T13:07:32;6.93;;;3.08;;
23750;SDS011;12055;52.098;13.176;2022-09-24T13:12:40;4.57;;;3.03;;
23750;SDS011;12055;52.098;13.176;2022-09-24T13:15:07;3.45;;;2.80;;
23750;SDS011;12055;52.098;13.176;2022-09-24T13:17:58;4.05;;;3.00;;
23750;SDS011;12055;52.098;13.176;2022-09-24T13:20:33;4.68;;;3.05;;
23750;SDS011;12055;52.098;13.176;2022-09-24T13:25:55;3.15;;;2.83;;
23750;SDS011;12055;52.098;13.176;2022-09-24T13:28:29;5.55;;;3.13;;
23750;SDS011;12055;52.098;13.176;2022-09-24T13:31:24;3.03;;;2.60;;
23750;SDS011;12055;52.098;13.176;2022-09-24T13:34:12;3.75;;;3.10;;
23750;SDS011;12055;52.098;13.176;2022-09-24T13:37:03;3.72;;;3.42;;
23750;SDS011;12055;52.098;13.176;2022-09-24T13:39:55;8.93;;;2.97;;
23750;SDS011;12055;52.098;13.176;2022-09-24T13:45:04;4.32;;;3.00;;
23750;SDS011;12055;52.098;13.176;2022-09-24T13:47:45;5.88;;;2.83;;
23750;SDS011;12055;52.098;13.176;2022-09-24T13:50:24;3.13;;;2.75;;
23750;SDS011;12055;52.098;13.176;2022-09-24T13:55:53;3.70;;;2.70;;
23750;SDS011;12055;52.098;13.176;2022-09-24T14:00:58;3.05;;;2.70;;
23750;SDS011;12055;52.098;13.176;2022-09-24T14:03:35;3.67;;;3.38;;
23750;SDS011;12055;52.098;13.176;2022-09-24T14:06:12;8.40;;;3.63;;
23750;SDS011;12055;52.098;13.176;2022-09-24T14:08:40;4.43;;;3.22;;
23750;SDS011;12055;52.098;13.176;2022-09-24T14:11:12;5.90;;;3.05;;
23750;SDS011;12055;52.098;13.176;2022-09-24T14:13:48;4.30;;;3.28;;
23750;SDS011;12055;52.098;13.176;2022-09-24T14:16:16;6.20;;;3.13;;
23750;SDS011;12055;52.098;13.176;2022-09-24T14:18:46;3.88;;;3.03;;
23750;SDS011;12055;52.098;13.176;2022-09-24T14:21:17;3.60;;;3.10;;
23750;SDS011;12055;52.098;13.176;2022-09-24T14:23:54;5.75;;;3.13;;
23750;SDS011;12055;52.098;13.176;2022-09-24T14:26:35;3.17;;;2.88;;
23750;SDS011;12055;52.098;13.176;2022-09-24T14:29:07;5.32;;;2.65;;
23750;SDS011;12055;52.098;13.176;2022-09-24T14:34:07;3.20;;;2.90;;
23750;SDS011;12055;52.098;13.176;2022-09-24T14:36:44;2.63;;;2.42;;
23750;SDS011;12055;52.098;13.176;2022-09-24T14:39:09;4.75;;;2.97;;
23750;SDS011;12055;52.098;13.176;2022-09-24T14:41:37;2.90;;;2.55;;
23750;SDS011;12055;52.098;13.176;2022-09-24T14:44:04;4.70;;;3.00;;
23750;SDS011;12055;52.098;13.176;2022-09-24T14:46:48;3.88;;;3.13;;
23750;SDS011;12055;52.098;13.176;2022-09-24T14:49:29;3.40;;;2.80;;
23750;SDS011;12055;52.098;13.176;2022-09-24T14:52:20;3.33;;;3.03;;
23750;SDS011;12055;52.098;13.176;2022-09-24T14:55:18;3.80;;;3.10;;
23750;SDS011;12055;52.098;13.176;2022-09-24T14:57:45;5.28;;;3.35;;
23750;SDS011;12055;52.098;13.176;2022-09-24T15:00:28;6.78;;;3.40;;
23750;SDS011;12055;52.098;13.176;2022-09-24T15:03:00;5.90;;;3.20;;
23750;SDS011;12055;52.098;13.176;2022-09-24T15:05:30;5.03;;;3.47;;
23750;SDS011;12055;52.098;13.176;2022-09-24T15:10:53;4.47;;;3.40;;
23750;SDS011;12055;52.098;13.176;2022-09-24T15:13:21;6.57;;;3.30;;
23750;SDS011;12055;52.098;13.176;2022-09-24T15:15:59;3.97;;;3.10;;
23750;SDS011;12055;52.098;13.176;2022-09-24T15:18:25;3.92;;;3.15;;
23750;SDS011;12055;52.098;13.176;2022-09-24T15:20:51;4.90;;;3.63;;
23750;SDS011;12055;52.098;13.176;2022-09-24T15:23:16;4.15;;;3.75;;
23750;SDS011;12055;52.098;13.176;2022-09-24T15:25:42;7.32;;;3.60;;
23750;SDS011;12055;52.098;13.176;2022-09-24T15:28:11;3.83;;;3.22;;
23750;SDS011;12055;52.098;13.176;2022-09-24T15:30:38;4.07;;;3.40;;
23750;SDS011;12055;52.098;13.176;2022-09-24T15:33:07;5.07;;;3.97;;
23750;SDS011;12055;52.098;13.176;2022-09-24T15:35:35;5.43;;;3.45;;
23750;SDS011;12055;52.098;13.176;2022-09-24T15:38:00;6.05;;;4.32;;
23750;SDS011;12055;52.098;13.176;2022-09-24T15:40:26;5.15;;;4.18;;
23750;SDS011;12055;52.098;13.176;2022-09-24T15:42:54;4.80;;;3.95;;
23750;SDS011;12055;52.098;13.176;2022-09-24T15:45:21;5.15;;;4.20;;
23750;SDS011;12055;52.098;13.176;2022-09-24T15:47:48;4.30;;;3.83;;
23750;SDS011;12055;52.098;13.176;2022-09-24T15:50:14;3.72;;;3.03;;
23750;SDS011;12055;52.098;13.176;2022-09-24T15:52:47;6.00;;;4.05;;
23750;SDS011;12055;52.098;13.176;2022-09-24T15:55:14;6.10;;;4.20;;
23750;SDS011;12055;52.098;13.176;2022-09-24T15:57:42;6.43;;;4.03;;
23750;SDS011;12055;52.098;13.176;2022-09-24T16:00:11;25.17;;;16.60;;
23750;SDS011;12055;52.098;13.176;2022-09-24T16:02:41;15.80;;;9.93;;
23750;SDS011;12055;52.098;13.176;2022-09-24T16:05:11;7.47;;;5.68;;
23750;SDS011;12055;52.098;13.176;2022-09-24T16:07:38;5.75;;;4.00;;
23750;SDS011;12055;52.098;13.176;2022-09-24T16:10:04;4.95;;;3.97;;
23750;SDS011;12055;52.098;13.176;2022-09-24T16:12:30;4.45;;;3.95;;
23750;SDS011;12055;52.098;13.176;2022-09-24T16:14:56;7.13;;;5.18;;
23750;SDS011;12055;52.098;13.176;2022-09-24T16:17:23;7.30;;;5.20;;
23750;SDS011;12055;52.098;13.176;2022-09-24T16:19:49;7.30;;;4.00;;
23750;SDS011;12055;52.098;13.176;2022-09-24T16:22:15;5.65;;;3.90;;
23750;SDS011;12055;52.098;13.176;2022-09-24T16:24:41;7.75;;;4.15;;
23750;SDS011;12055;52.098;13.176;2022-09-24T16:27:06;5.35;;;3.95;;
23750;SDS011;12055;52.098;13.176;2022-09-24T16:29:32;10.52;;;4.40;;